Startpagina
METAR-TAF:

METAR-TAF

Vliegvelden :

Poprad, Slowakije

breedte: 49-04N, lengte: 020-15E, hoogte: 694 m

Actueel weer

Dit bericht is 30 minuten geleden gemaakt, om 12:00 UTC
Wind 3 kt uit variabele richting
Temperatuur 22°C
Vochtigheid 50%
Druk 1022 hPa
Zicht 10 km of meer
Weinig wolken op 6000 ft

METAR: LZTT 201200Z VRB03KT 9999 FEW060 22/11 Q1022 NOSIG

Tijdstip: 14:30 (12:30 UTC)

Verwachting

Dit bericht is 1 uur en het 30 minuten geleden gemaakt, om 11:00 UTC
Verwachting geldig van 20 om 12 UTC tot 21 om 12 UTC
Wind 5 kt uit het zuidoosten
Zicht 10 km of meer
Verspreide wolken op 5500 ft
Wijzigt naar
van 20 om 18 UTC tot 20 om 20 UTC
Wind 4 kt uit het westen

TAF: LZTT 201100Z 2012/2112 14005KT 9999 SCT055 BECMG 2018/2020 26004KT

Waarnemingen en weersverwachtingen van meer dan 4000 vliegvelden (METAR en TAF).

De beschikbare stations zijn de gele en rode punten op de kaart.

Ga met uw muis naar het station om de naam te zien.

Klik dan om waarnemingen en weersverwachtingen te zien.

kaart wijzigen: klik op de groene knoppen met een zwart kruis om in te zoomen, op de groene knop met een streepje om uit te zoomen of op de groene pijlen voor aangrenzende kaarten.


METAR-TAF: